createdAt,value
2023-01-20T00:00:39.592Z,22.5
2023-01-20T00:06:29.595Z,24.5
2023-01-20T00:12:19.861Z,24.5
2023-01-20T00:18:10.975Z,22.4
2023-01-20T00:24:01.620Z,22.3
2023-01-20T00:29:52.869Z,20.1
2023-01-20T00:35:42.622Z,26.3
2023-01-20T00:41:33.384Z,25.5
2023-01-20T00:47:24.564Z,24.7
2023-01-20T00:53:15.866Z,33.2
2023-01-20T00:59:06.826Z,27.1
2023-01-20T01:04:56.603Z,22.8
2023-01-20T01:10:48.262Z,29.7
2023-01-20T01:16:38.753Z,31.9
2023-01-20T01:22:37.510Z,47.5
2023-01-20T01:28:26.658Z,54.3
2023-01-20T01:34:15.645Z,55.6
2023-01-20T01:40:06.208Z,41.1
2023-01-20T01:45:57.001Z,31.1
2023-01-20T01:51:48.203Z,26.7
2023-01-20T01:57:38.373Z,24.3
2023-01-20T02:03:29.012Z,22.4
2023-01-20T02:09:20.263Z,26
2023-01-20T02:15:11.785Z,23
2023-01-20T02:21:03.059Z,21.9
2023-01-20T02:26:55.088Z,21.6
2023-01-20T02:32:45.561Z,25.8
2023-01-20T02:38:36.549Z,24.4
2023-01-20T02:44:28.002Z,21.9
2023-01-20T02:50:18.788Z,23.5
2023-01-20T02:56:09.191Z,22.6
2023-01-20T03:02:00.340Z,22.7
2023-01-20T03:07:51.244Z,19
2023-01-20T03:13:42.340Z,23.2
2023-01-20T03:19:32.620Z,19.7
2023-01-20T03:25:23.551Z,20.2
2023-01-20T03:31:16.858Z,21.1
2023-01-20T03:37:07.782Z,20
2023-01-20T03:42:58.782Z,22
2023-01-20T03:48:49.362Z,20.3
2023-01-20T03:54:40.845Z,21.1
2023-01-20T04:00:34.827Z,23.4
2023-01-20T04:06:25.052Z,24.1
2023-01-20T04:12:16.567Z,24.1
2023-01-20T04:18:07.429Z,22
2023-01-20T04:23:58.517Z,22
2023-01-20T04:29:50.053Z,22.3
2023-01-20T04:35:40.565Z,24.8
2023-01-20T04:41:31.563Z,22.1
2023-01-20T04:47:23.020Z,20.8
2023-01-20T04:53:13.211Z,22.2
2023-01-20T04:59:04.313Z,24.9
2023-01-20T05:04:54.858Z,23
2023-01-20T05:10:45.318Z,24.6
2023-01-20T15:54:13.386Z,28.4
2023-01-20T16:00:01.288Z,27.2
2023-01-20T16:05:51.268Z,26.3
2023-01-20T16:11:41.957Z,28.1
2023-01-20T16:17:32.790Z,26.2
